Time;durP1;ratioP1;P1;durP2;ratioP2;P2;SDS_P1;SDS_P2;PMS_P1;PMS_P2;Temp;Humidity;BMP_temperature;BMP_pressure;BME280_temperature;BME280_humidity;BME280_pressure;Samples;Min_cycle;Max_cycle;Signal;HPM_P1;HPM_P2
2023/02/24 00:01:14;;;;;;;8.63;0.60;;;1.20;99.90;;;;;;5033600;28;20059;-74
2023/02/24 00:03:43;;;;;;;9.25;0.40;;;1.30;99.90;;;;;;5034618;28;20044;-74
2023/02/24 00:06:10;;;;;;;5.80;0.90;;;1.20;99.90;;;;;;5034857;28;20026;-74
2023/02/24 00:08:39;;;;;;;9.60;0.90;;;1.20;99.90;;;;;;5034765;28;20034;-74
2023/02/24 00:11:11;;;;;;;8.45;0.50;;;1.20;99.90;;;;;;5034474;28;20045;-74
2023/02/24 00:13:37;;;;;;;9.77;0.50;;;1.20;99.90;;;;;;5034513;28;20484;-74
2023/02/24 00:16:04;;;;;;;7.57;0.73;;;1.20;99.90;;;;;;5034468;28;20033;-74
2023/02/24 00:18:31;;;;;;;12.40;1.67;;;1.20;99.90;;;;;;5034263;28;20388;-74
2023/02/24 00:21:17;;;;;;;10.85;1.13;;;1.20;99.90;;;;;;5033024;28;20022;-74
2023/02/24 00:23:45;;;;;;;10.52;1.27;;;1.30;99.90;;;;;;5032887;28;20038;-74
2023/02/24 00:26:13;;;;;;;8.93;0.40;;;1.30;99.90;;;;;;5033210;28;20488;-74
2023/02/24 00:28:39;;;;;;;11.75;1.00;;;1.30;99.90;;;;;;5034387;28;20480;-73
2023/02/24 00:31:14;;;;;;;6.50;0.38;;;1.30;99.90;;;;;;5033175;28;20388;-73
2023/02/24 00:33:45;;;;;;;9.15;0.70;;;1.20;99.90;;;;;;5032914;28;20399;-73
2023/02/24 00:36:13;;;;;;;16.20;1.10;;;1.20;99.90;;;;;;5032889;28;20396;-73
2023/02/24 00:38:49;;;;;;;12.30;0.52;;;1.20;99.90;;;;;;5034129;28;20412;-73
2023/02/24 00:41:17;;;;;;;9.88;0.40;;;1.20;99.90;;;;;;5034297;28;20025;-73
2023/02/24 00:43:47;;;;;;;9.50;0.70;;;1.20;99.90;;;;;;5034276;28;20492;-73
2023/02/24 00:46:20;;;;;;;11.20;0.57;;;1.20;99.90;;;;;;5033884;28;20539;-73
2023/02/24 00:48:48;;;;;;;6.07;0.45;;;1.20;99.90;;;;;;5032615;28;20021;-73
2023/02/24 00:51:16;;;;;;;9.48;0.45;;;1.20;99.90;;;;;;5033923;28;20056;-73
2023/02/24 00:53:43;;;;;;;5.25;0.10;;;1.20;99.90;;;;;;5034382;28;20105;-73
2023/02/24 00:56:12;;;;;;;7.03;0.68;;;1.20;99.90;;;;;;5033712;28;20542;-74
2023/02/24 00:58:42;;;;;;;4.13;1.25;;;1.20;99.90;;;;;;5033767;28;20025;-73
2023/02/24 01:01:16;;;;;;;11.73;0.80;;;1.20;99.90;;;;;;5033679;28;20021;-73
2023/02/24 01:03:42;;;;;;;6.68;0.30;;;1.10;99.90;;;;;;5032559;28;20022;-73
2023/02/24 01:06:10;;;;;;;6.43;0.65;;;1.10;99.90;;;;;;5033766;28;20029;-73
2023/02/24 01:08:41;;;;;;;18.63;0.50;;;1.10;99.90;;;;;;5033659;28;20072;-73
2023/02/24 01:13:51;;;;;;;4.55;0.30;;;1.00;99.90;;;;;;5034435;28;20036;-73
2023/02/24 01:16:17;;;;;;;4.50;0.43;;;1.00;99.90;;;;;;5033418;28;20017;-73
2023/02/24 01:18:46;;;;;;;4.25;0.43;;;1.00;99.90;;;;;;5033657;28;20109;-74
2023/02/24 01:21:13;;;;;;;7.07;1.27;;;0.90;99.90;;;;;;5032307;28;20392;-74
2023/02/24 01:23:41;;;;;;;7.65;1.45;;;0.90;99.90;;;;;;5033368;28;20022;-74
2023/02/24 01:26:07;;;;;;;5.15;0.28;;;0.90;99.90;;;;;;5032197;28;20030;-73
2023/02/24 01:28:32;;;;;;;4.82;0.30;;;0.90;99.90;;;;;;5032122;28;20104;-73
2023/02/24 01:31:04;;;;;;;8.60;0.60;;;0.80;99.90;;;;;;5034905;28;20053;-73
2023/02/24 01:33:32;;;;;;;6.72;0.28;;;0.80;99.90;;;;;;5036436;28;20021;-74
2023/02/24 01:36:08;;;;;;;9.75;0.45;;;0.80;99.90;;;;;;5036313;28;20075;-73
2023/02/24 01:38:35;;;;;;;7.05;1.02;;;0.80;99.90;;;;;;5036156;28;20025;-73
2023/02/24 01:41:03;;;;;;;7.60;0.82;;;0.80;99.90;;;;;;5037381;28;20385;-73
2023/02/24 01:43:33;;;;;;;7.88;0.80;;;0.80;99.90;;;;;;5036184;28;20026;-74
2023/02/24 01:45:59;;;;;;;9.77;0.50;;;0.80;99.90;;;;;;5036000;28;20061;-73
2023/02/24 01:48:26;;;;;;;8.15;0.35;;;0.90;99.90;;;;;;5037335;28;20526;-73
2023/02/24 01:50:52;;;;;;;3.72;0.30;;;0.90;99.90;;;;;;5037174;28;20423;-73
2023/02/24 01:53:18;;;;;;;3.20;0.40;;;0.90;99.90;;;;;;5037186;28;20030;-73
2023/02/24 01:55:48;;;;;;;4.97;0.28;;;1.00;99.90;;;;;;5037206;28;20109;-73
2023/02/24 01:58:27;;;;;;;20.23;1.70;;;0.90;99.90;;;;;;5037304;28;20025;-74
2023/02/24 02:00:54;;;;;;;7.13;0.52;;;1.00;99.90;;;;;;5037092;28;20024;-73
2023/02/24 02:03:28;;;;;;;6.18;0.60;;;0.90;99.90;;;;;;5036907;28;20028;-73
2023/02/24 02:06:00;;;;;;;10.80;0.63;;;0.90;99.90;;;;;;5037087;28;20033;-73
2023/02/24 02:08:27;;;;;;;8.70;0.80;;;0.90;99.90;;;;;;5035720;28;20024;-73
2023/02/24 02:10:57;;;;;;;5.03;0.57;;;0.90;99.90;;;;;;5035641;28;20122;-73
2023/02/24 02:13:25;;;;;;;2.92;0.10;;;0.90;99.90;;;;;;5036884;28;20049;-74
2023/02/24 02:15:57;;;;;;;7.97;0.30;;;0.90;99.90;;;;;;5036835;28;20025;-73
2023/02/24 02:18:37;;;;;;;7.47;0.47;;;0.90;99.90;;;;;;5037160;28;20018;-73
2023/02/24 02:21:29;;;;;;;6.60;0.20;;;0.80;99.90;;;;;;5036781;28;20026;-73
2023/02/24 02:24:22;;;;;;;7.40;0.85;;;0.80;99.90;;;;;;5036777;28;20025;-73
2023/02/24 02:26:48;;;;;;;5.40;0.20;;;0.80;99.90;;;;;;5036607;28;20041;-74
2023/02/24 02:29:49;;;;;;;5.72;0.60;;;0.90;99.90;;;;;;5035159;28;20033;-74
2023/02/24 02:32:33;;;;;;;2.45;0.40;;;0.90;99.90;;;;;;5035170;28;20033;-74
2023/02/24 02:35:05;;;;;;;4.90;0.50;;;0.90;99.90;;;;;;5036988;28;20377;-74
2023/02/24 02:37:41;;;;;;;7.15;1.25;;;0.90;99.90;;;;;;5035069;28;20029;-74
2023/02/24 02:40:24;;;;;;;6.82;0.30;;;0.90;99.90;;;;;;5034994;28;20480;-74
2023/02/24 02:43:05;;;;;;;12.20;0.50;;;0.80;99.90;;;;;;5035416;28;20022;-74
2023/02/24 02:45:48;;;;;;;17.08;1.10;;;0.80;99.90;;;;;;5036149;28;20034;-74
2023/02/24 02:48:30;;;;;;;8.55;0.40;;;0.80;99.90;;;;;;5034988;28;20021;-73
2023/02/24 02:51:18;;;;;;;7.95;0.50;;;0.80;99.90;;;;;;5035944;28;20072;-74
2023/02/24 02:54:15;;;;;;;4.77;0.63;;;0.80;99.90;;;;;;5036081;28;20109;-74
2023/02/24 02:56:47;;;;;;;12.00;0.55;;;0.80;99.90;;;;;;5036022;28;20793;-74
2023/02/24 02:59:21;;;;;;;6.35;0.60;;;0.80;99.90;;;;;;5035934;28;20040;-74
2023/02/24 03:01:50;;;;;;;10.43;0.20;;;0.80;99.90;;;;;;5036415;28;20465;-74
2023/02/24 03:04:21;;;;;;;9.85;0.65;;;0.80;99.90;;;;;;5036008;28;20425;-74
2023/02/24 03:06:58;;;;;;;8.68;0.20;;;0.80;99.90;;;;;;5035993;28;20029;-74
2023/02/24 03:09:28;;;;;;;6.07;0.22;;;0.80;99.90;;;;;;5035929;28;20440;-74
2023/02/24 03:12:00;;;;;;;7.80;0.75;;;0.80;99.90;;;;;;5034895;28;20033;-75
2023/02/24 03:14:32;;;;;;;4.90;0.10;;;0.80;99.90;;;;;;5034353;28;20056;-75
2023/02/24 03:16:58;;;;;;;8.18;0.47;;;0.80;99.90;;;;;;5035570;28;20028;-75
2023/02/24 03:19:36;;;;;;;5.85;0.35;;;0.80;99.90;;;;;;5035650;28;20033;-75
2023/02/24 03:22:13;;;;;;;3.55;0.28;;;0.80;99.90;;;;;;5035820;28;20025;-75
2023/02/24 03:24:40;;;;;;;3.85;0.40;;;0.90;99.90;;;;;;5035581;28;20013;-75
2023/02/24 03:27:54;;;;;;;11.38;1.70;;;0.90;99.90;;;;;;5035487;28;20531;-74
2023/02/24 03:30:25;;;;;;;6.28;0.85;;;0.90;99.90;;;;;;5013319;28;20064;-75
2023/02/24 03:33:07;;;;;;;6.70;1.15;;;1.00;99.90;;;;;;5027767;28;20044;-75
2023/02/24 03:35:37;;;;;;;8.77;0.63;;;1.00;99.90;;;;;;5033819;28;20025;-75
2023/02/24 03:38:05;;;;;;;4.32;1.05;;;1.10;99.90;;;;;;5033937;28;20034;-75
2023/02/24 03:40:34;;;;;;;5.28;0.22;;;1.10;99.90;;;;;;5035092;28;20124;-75
2023/02/24 03:43:08;;;;;;;3.72;0.28;;;1.10;99.90;;;;;;5035090;28;20018;-75
2023/02/24 03:45:39;;;;;;;6.88;0.90;;;1.20;99.90;;;;;;5033694;28;20040;-75
2023/02/24 03:48:08;;;;;;;10.65;0.38;;;1.20;99.90;;;;;;5033917;28;20021;-75
2023/02/24 03:50:34;;;;;;;8.20;0.22;;;1.20;99.90;;;;;;5035145;28;20026;-75
2023/02/24 03:53:15;;;;;;;7.80;0.35;;;1.30;99.90;;;;;;5035060;28;20029;-75
2023/02/24 03:55:59;;;;;;;3.35;0.10;;;1.30;99.90;;;;;;5035162;28;20485;-75
2023/02/24 03:58:24;;;;;;;7.38;0.40;;;1.40;99.90;;;;;;5033581;28;20021;-75
2023/02/24 04:01:04;;;;;;;5.03;0.52;;;1.50;99.90;;;;;;5034996;28;20028;-75
2023/02/24 04:03:37;;;;;;;6.93;0.43;;;1.50;99.90;;;;;;5035381;28;20125;-75
2023/02/24 04:06:05;;;;;;;5.25;0.40;;;1.60;99.90;;;;;;5034647;28;20057;-75
2023/02/24 04:09:00;;;;;;;6.57;0.30;;;1.70;99.90;;;;;;5034614;28;20029;-75
2023/02/24 04:11:28;;;;;;;5.72;0.32;;;1.80;99.90;;;;;;5026118;28;20396;-75
2023/02/24 04:14:05;;;;;;;9.03;1.23;;;1.80;99.90;;;;;;5033379;28;20033;-74
2023/02/24 04:16:55;;;;;;;4.63;0.40;;;1.90;99.90;;;;;;5034444;28;20388;-74
2023/02/24 04:19:23;;;;;;;8.85;0.10;;;2.00;99.90;;;;;;5034493;28;20104;-75
2023/02/24 04:21:49;;;;;;;6.22;0.08;;;2.10;99.90;;;;;;5034442;28;20100;-75
2023/02/24 04:24:20;;;;;;;4.95;0.82;;;2.20;99.90;;;;;;5034360;28;20129;-75
2023/02/24 04:26:47;;;;;;;3.53;0.38;;;2.30;99.90;;;;;;5032956;28;20017;-75
2023/02/24 04:29:22;;;;;;;5.40;0.45;;;2.30;99.90;;;;;;5034283;28;20029;-74
2023/02/24 04:32:08;;;;;;;1.20;0.03;;;2.30;99.90;;;;;;5034294;28;20033;-74
2023/02/24 04:34:34;;;;;;;3.33;0.45;;;2.30;99.90;;;;;;5033167;28;20036;-74
2023/02/24 04:37:01;;;;;;;11.25;0.93;;;2.40;99.90;;;;;;5033979;28;20017;-74
2023/02/24 04:39:27;;;;;;;6.65;0.35;;;2.50;99.90;;;;;;5032832;28;20018;-74
2023/02/24 04:41:53;;;;;;;6.82;0.00;;;2.50;99.90;;;;;;5033990;28;20021;-74
2023/02/24 04:44:20;;;;;;;5.28;0.10;;;2.50;99.90;;;;;;5034175;28;20562;-74
2023/02/24 04:46:48;;;;;;;5.57;0.28;;;2.60;99.90;;;;;;5032582;28;20033;-74
2023/02/24 04:49:16;;;;;;;5.55;0.10;;;2.60;99.90;;;;;;5033983;28;20036;-74
2023/02/24 04:51:43;;;;;;;11.65;0.28;;;2.60;99.90;;;;;;5033806;28;20389;-74
2023/02/24 04:54:12;;;;;;;7.28;0.60;;;2.60;99.90;;;;;;5032595;28;20452;-74
2023/02/24 04:56:39;;;;;;;5.10;0.32;;;2.60;99.90;;;;;;5034440;28;20024;-74
2023/02/24 04:59:05;;;;;;;5.00;0.52;;;2.70;99.90;;;;;;5033044;28;20047;-74
2023/02/24 05:01:31;;;;;;;5.30;0.22;;;2.60;99.90;;;;;;5033940;28;20024;-74
2023/02/24 05:03:58;;;;;;;4.55;0.25;;;2.70;99.90;;;;;;5033659;28;20017;-74
2023/02/24 05:06:24;;;;;;;5.55;0.00;;;2.70;99.90;;;;;;5035081;28;20025;-74
2023/02/24 05:08:52;;;;;;;7.28;1.13;;;2.70;99.90;;;;;;5034775;28;20111;-75
2023/02/24 05:11:18;;;;;;;4.88;0.22;;;2.80;99.90;;;;;;5033026;28;20033;-75
2023/02/24 05:13:44;;;;;;;5.22;0.10;;;2.90;99.90;;;;;;5033639;28;20373;-75
2023/02/24 05:16:13;;;;;;;0.75;0.00;;;2.90;99.90;;;;;;5034631;28;20057;-75
2023/02/24 05:18:39;;;;;;;11.55;0.13;;;2.90;99.90;;;;;;5033496;28;20488;-75
2023/02/24 05:23:58;;;;;;;6.55;0.60;;;2.90;99.90;;;;;;5035365;28;20400;-74
2023/02/24 05:26:24;;;;;;;3.10;0.00;;;2.90;99.90;;;;;;5032764;28;20148;-75
2023/02/24 05:28:52;;;;;;;6.97;0.52;;;2.90;99.90;;;;;;5034122;28;20476;-75
2023/02/24 05:31:27;;;;;;;8.38;1.08;;;3.00;99.90;;;;;;5034858;28;20026;-75
2023/02/24 05:34:00;;;;;;;2.60;0.00;;;3.00;99.90;;;;;;5034227;28;20108;-75
2023/02/24 05:36:29;;;;;;;9.32;0.00;;;3.00;99.90;;;;;;5032746;28;20093;-74
2023/02/24 05:39:03;;;;;;;3.47;0.10;;;3.10;99.90;;;;;;5033740;28;20022;-74
2023/02/24 05:41:34;;;;;;;6.60;0.47;;;3.10;99.90;;;;;;5033932;28;20025;-75
2023/02/24 05:44:07;;;;;;;0.90;0.00;;;3.10;99.90;;;;;;5033791;28;20037;-74
2023/02/24 05:46:36;;;;;;;3.05;0.35;;;3.10;99.90;;;;;;5033399;28;20045;-74
2023/02/24 05:49:08;;;;;;;6.95;0.10;;;3.10;99.90;;;;;;5032658;28;20033;-76
2023/02/24 05:51:35;;;;;;;5.03;0.63;;;3.10;99.90;;;;;;5032556;28;20026;-75
2023/02/24 05:54:03;;;;;;;6.65;0.98;;;3.10;99.90;;;;;;5033874;28;20030;-76
2023/02/24 05:56:33;;;;;;;4.88;0.00;;;3.20;99.90;;;;;;5033787;28;20049;-76
2023/02/24 05:59:03;;;;;;;0.20;0.00;;;3.20;99.90;;;;;;5033847;28;20033;-75
2023/02/24 06:01:33;;;;;;;4.03;0.10;;;3.20;99.90;;;;;;5033935;28;20056;-76
2023/02/24 06:04:05;;;;;;;6.32;0.88;;;3.30;99.90;;;;;;5033952;28;20616;-75
2023/02/24 06:06:35;;;;;;;5.38;0.05;;;3.30;99.90;;;;;;5033854;28;20063;-75
2023/02/24 06:09:09;;;;;;;0.82;0.08;;;3.40;99.90;;;;;;5033678;28;20029;-75
2023/02/24 06:11:36;;;;;;;5.53;0.85;;;3.40;99.90;;;;;;5032321;28;20025;-75
2023/02/24 06:14:05;;;;;;;5.68;0.00;;;3.50;99.90;;;;;;5032267;28;20492;-75
2023/02/24 06:16:38;;;;;;;1.92;0.10;;;3.50;99.90;;;;;;5032403;28;20369;-75
2023/02/24 06:19:08;;;;;;;3.25;0.00;;;3.50;99.90;;;;;;5036879;28;20025;-75
2023/02/24 06:21:36;;;;;;;4.57;0.00;;;3.50;99.90;;;;;;5036895;28;20022;-75
2023/02/24 06:24:02;;;;;;;4.75;0.43;;;3.50;99.90;;;;;;5037019;28;20476;-74
2023/02/24 06:26:32;;;;;;;4.35;0.00;;;3.50;99.90;;;;;;5036477;28;20021;-75
2023/02/24 06:28:59;;;;;;;9.35;0.40;;;3.50;99.90;;;;;;5038212;28;20040;-75
2023/02/24 06:31:26;;;;;;;4.07;0.10;;;3.50;99.90;;;;;;5036586;28;20443;-75
2023/02/24 06:33:53;;;;;;;2.08;0.00;;;3.50;99.90;;;;;;5037920;28;20099;-75
2023/02/24 06:36:20;;;;;;;4.22;0.40;;;3.60;99.90;;;;;;5037544;28;20025;-75
2023/02/24 06:38:45;;;;;;;2.28;0.20;;;3.60;99.90;;;;;;5037491;28;20075;-75
2023/02/24 06:41:11;;;;;;;14.60;0.65;;;3.60;99.90;;;;;;5035673;28;20025;-75
2023/02/24 06:43:39;;;;;;;3.05;0.10;;;3.60;99.90;;;;;;5035697;28;20018;-75
2023/02/24 06:46:10;;;;;;;10.68;0.75;;;4.40;99.90;;;;;;5036829;28;20114;-75
2023/02/24 06:48:36;;;;;;;4.60;0.00;;;3.60;99.90;;;;;;5036357;28;20030;-75
2023/02/24 06:51:17;;;;;;;2.03;0.00;;;3.60;99.90;;;;;;5034860;28;20021;-75
2023/02/24 06:53:43;;;;;;;3.45;0.00;;;3.60;99.90;;;;;;5036389;28;20033;-75
2023/02/24 06:56:15;;;;;;;2.47;0.00;;;3.60;99.90;;;;;;5034548;28;20498;-75
2023/02/24 06:58:46;;;;;;;5.57;0.25;;;3.70;99.90;;;;;;5035913;28;20028;-75
2023/02/24 07:01:14;;;;;;;7.25;0.57;;;3.80;99.90;;;;;;5035861;28;20021;-75
2023/02/24 07:03:46;;;;;;;5.75;0.28;;;3.80;99.90;;;;;;5034685;28;20057;-75
2023/02/24 07:06:22;;;;;;;8.02;0.13;;;3.80;99.90;;;;;;5034932;28;20087;-74
2023/02/24 07:08:49;;;;;;;8.13;0.60;;;3.90;99.90;;;;;;5035998;28;20029;-75
2023/02/24 07:11:17;;;;;;;13.00;1.25;;;3.80;99.90;;;;;;5034341;28;20025;-75
2023/02/24 07:13:44;;;;;;;6.03;0.57;;;3.80;99.90;;;;;;5035662;28;20030;-75
2023/02/24 07:16:10;;;;;;;4.38;0.17;;;3.80;99.90;;;;;;5035845;28;20018;-75
2023/02/24 07:18:41;;;;;;;7.70;0.00;;;3.80;99.90;;;;;;5033520;28;20027;-75
2023/02/24 07:21:12;;;;;;;8.07;0.20;;;3.80;99.90;;;;;;5033925;28;20205;-74
2023/02/24 07:23:39;;;;;;;2.17;0.25;;;3.90;99.90;;;;;;5034000;28;20025;-74
2023/02/24 07:26:15;;;;;;;4.00;0.30;;;3.90;99.90;;;;;;5035429;28;20477;-74
2023/02/24 07:28:43;;;;;;;6.05;0.45;;;3.90;99.90;;;;;;5033363;28;20061;-74
2023/02/24 07:31:15;;;;;;;1.00;0.17;;;4.00;99.90;;;;;;5035264;28;20025;-74
2023/02/24 07:33:44;;;;;;;4.03;0.15;;;4.00;99.90;;;;;;5033954;28;20403;-75
2023/02/24 07:36:14;;;;;;;3.80;0.22;;;4.00;99.90;;;;;;5035051;28;20017;-74
2023/02/24 07:38:41;;;;;;;3.80;0.10;;;4.10;99.90;;;;;;5033790;28;20079;-74
2023/02/24 07:41:11;;;;;;;7.63;0.98;;;4.20;99.90;;;;;;5033585;28;20017;-74
2023/02/24 07:43:38;;;;;;;10.13;0.57;;;4.20;99.90;;;;;;5033825;28;20117;-74
2023/02/24 07:46:10;;;;;;;14.02;0.85;;;4.20;99.90;;;;;;5034899;28;20456;-74
2023/02/24 07:48:36;;;;;;;9.27;0.20;;;4.20;99.90;;;;;;5034657;28;20022;-74
2023/02/24 07:51:07;;;;;;;1.80;0.43;;;4.30;99.90;;;;;;5034873;28;20075;-74
2023/02/24 07:53:33;;;;;;;4.60;0.20;;;4.30;99.90;;;;;;5034881;28;20032;-74
2023/02/24 07:55:58;;;;;;;7.32;0.28;;;4.40;99.90;;;;;;5033434;28;20026;-74
2023/02/24 07:58:24;;;;;;;3.47;0.30;;;4.40;99.90;;;;;;5034730;28;20480;-74
2023/02/24 08:00:58;;;;;;;5.45;0.38;;;4.40;99.90;;;;;;5034923;28;20033;-74
2023/02/24 08:03:26;;;;;;;7.97;0.47;;;4.40;99.90;;;;;;5033898;28;20026;-74
2023/02/24 08:06:11;;;;;;;4.95;0.75;;;4.50;99.90;;;;;;5034614;28;20022;-74
2023/02/24 08:08:56;;;;;;;6.95;0.73;;;4.60;99.90;;;;;;5034480;28;20045;-74
2023/02/24 08:11:26;;;;;;;4.65;0.13;;;4.50;99.90;;;;;;5034672;28;20022;-74
2023/02/24 08:13:52;;;;;;;4.90;0.52;;;4.60;99.90;;;;;;5033561;28;20025;-74
2023/02/24 08:16:18;;;;;;;6.20;0.17;;;4.60;99.90;;;;;;5033435;28;20022;-74
2023/02/24 08:18:56;;;;;;;4.90;0.30;;;4.60;99.90;;;;;;5034767;28;20029;-74
2023/02/24 08:21:22;;;;;;;7.35;0.60;;;4.60;99.90;;;;;;5034613;28;20032;-74
2023/02/24 08:23:48;;;;;;;9.40;0.60;;;4.60;99.90;;;;;;5034693;28;20037;-75
2023/02/24 08:26:13;;;;;;;5.88;0.63;;;4.80;99.90;;;;;;5034685;28;20021;-74
2023/02/24 08:28:39;;;;;;;1.25;0.45;;;4.80;99.90;;;;;;5034723;28;20045;-74
2023/02/24 08:31:05;;;;;;;6.45;0.30;;;5.50;99.90;;;;;;5034335;28;20032;-74
2023/02/24 08:33:31;;;;;;;5.25;0.52;;;5.20;99.90;;;;;;5033061;28;20120;-74
2023/02/24 08:36:00;;;;;;;6.05;0.50;;;5.40;99.90;;;;;;5032689;28;20028;-74
2023/02/24 08:38:38;;;;;;;4.28;0.50;;;4.80;99.90;;;;;;5034312;28;20030;-74
2023/02/24 08:41:05;;;;;;;3.83;0.50;;;4.80;99.90;;;;;;5037662;23;20699;-74
2023/02/24 08:43:37;;;;;;;11.02;0.73;;;4.90;99.90;;;;;;5013561;28;20277;-74
2023/02/24 08:46:12;;;;;;;9.00;0.47;;;4.90;99.90;;;;;;5012815;28;20072;-74
2023/02/24 08:48:43;;;;;;;4.95;0.50;;;4.90;99.90;;;;;;5012943;28;20061;-74
2023/02/24 08:51:34;;;;;;;8.98;0.68;;;4.90;99.90;;;;;;5012730;28;20038;-74
2023/02/24 08:54:09;;;;;;;4.45;0.20;;;4.90;99.90;;;;;;5013028;28;20021;-74
2023/02/24 08:56:42;;;;;;;4.10;0.85;;;4.80;99.90;;;;;;5012899;28;20096;-74
2023/02/24 08:59:27;;;;;;;5.57;0.57;;;4.80;99.90;;;;;;5012815;28;20029;-74
2023/02/24 09:02:17;;;;;;;4.55;0.75;;;4.80;99.90;;;;;;5014110;28;20064;-73
2023/02/24 09:04:43;;;;;;;2.67;0.50;;;4.80;99.90;;;;;;5014181;28;20120;-74
2023/02/24 09:07:14;;;;;;;;;;;4.80;99.90;;;;;;5013421;28;20028;-74
2023/02/24 09:09:40;;;;;;;6.93;0.25;;;4.80;99.90;;;;;;5013074;28;19909;-74
2023/02/24 09:12:06;;;;;;;6.03;0.98;;;4.90;99.90;;;;;;5012754;28;20121;-74
2023/02/24 09:14:36;;;;;;;7.68;0.88;;;5.00;99.90;;;;;;5012066;28;20018;-74
2023/02/24 09:17:13;;;;;;;10.70;1.27;;;5.00;99.90;;;;;;5013041;28;20400;-74
2023/02/24 09:19:39;;;;;;;7.90;0.45;;;5.10;99.90;;;;;;5012503;28;20022;-74
2023/02/24 09:22:14;;;;;;;4.78;0.30;;;5.10;99.90;;;;;;5012593;28;20117;-74
2023/02/24 09:24:40;;;;;;;6.90;0.22;;;5.10;99.90;;;;;;5012610;28;20206;-74
2023/02/24 09:27:06;;;;;;;4.75;0.10;;;5.20;99.90;;;;;;5014012;28;20026;-74
2023/02/24 09:29:32;;;;;;;16.20;0.80;;;5.20;99.90;;;;;;5013905;28;20022;-74
2023/02/24 09:32:06;;;;;;;8.48;0.40;;;6.10;99.90;;;;;;5013690;28;20022;-74
2023/02/24 09:34:36;;;;;;;15.98;0.30;;;5.30;99.90;;;;;;5013902;28;20110;-74
2023/02/24 09:37:02;;;;;;;11.40;0.85;;;5.40;99.90;;;;;;5013889;28;20017;-74
2023/02/24 09:44:58;;;;;;;7.88;0.68;;;5.70;99.90;;;;;;5013907;28;20489;-74
2023/02/24 09:47:55;;;;;;;7.82;0.80;;;5.60;99.90;;;;;;5012605;28;20056;-74
2023/02/24 09:50:23;;;;;;;9.63;0.80;;;5.70;99.90;;;;;;5013963;28;20030;-74
2023/02/24 09:52:54;;;;;;;5.90;0.35;;;5.60;99.90;;;;;;5016137;28;20025;-74
2023/02/24 09:55:44;;;;;;;7.80;1.05;;;5.60;99.90;;;;;;5014847;28;20085;-75
2023/02/24 10:01:20;;;;;;;7.35;1.30;;;5.50;99.90;;;;;;5017962;28;20057;-74
2023/02/24 10:04:04;;;;;;;12.40;0.70;;;5.50;99.90;;;;;;5017692;28;20022;-74
2023/02/24 10:06:45;;;;;;;8.40;0.85;;;5.50;99.90;;;;;;5017486;28;20022;-74
2023/02/24 10:09:37;;;;;;;3.75;0.20;;;5.50;99.90;;;;;;5017756;28;20041;-74
2023/02/24 10:12:17;;;;;;;6.82;0.85;;;5.50;99.90;;;;;;5017087;28;20018;-73
2023/02/24 10:15:17;;;;;;;8.50;0.95;;;5.50;99.90;;;;;;5016227;28;20123;-75
2023/02/24 10:17:46;;;;;;;8.18;0.63;;;5.50;99.90;;;;;;5016763;28;20160;-75
2023/02/24 10:20:44;;;;;;;11.73;0.93;;;5.50;99.90;;;;;;5016817;28;20022;-75
2023/02/24 10:23:09;;;;;;;12.23;0.85;;;5.50;99.90;;;;;;5016896;28;20068;-75
2023/02/24 10:25:54;;;;;;;10.20;0.80;;;5.50;99.90;;;;;;5015125;28;20034;-75
2023/02/24 10:28:34;;;;;;;7.18;0.70;;;5.50;99.90;;;;;;5016469;28;20033;-75
2023/02/24 10:31:23;;;;;;;9.38;1.02;;;5.50;99.90;;;;;;5016613;28;20022;-76
2023/02/24 10:34:06;;;;;;;7.93;0.73;;;5.50;99.90;;;;;;5015922;28;20022;-76
2023/02/24 10:36:36;;;;;;;8.70;1.50;;;5.50;99.90;;;;;;5016617;28;20113;-76
2023/02/24 10:39:24;;;;;;;1.63;0.13;;;5.60;99.90;;;;;;5016888;28;20104;-75
2023/02/24 10:41:58;;;;;;;8.32;1.02;;;5.50;99.90;;;;;;5016564;28;20049;-74
2023/02/24 10:44:34;;;;;;;10.35;0.32;;;5.50;99.90;;;;;;5016650;28;20062;-74
2023/02/24 10:47:10;;;;;;;8.63;0.93;;;5.60;99.90;;;;;;5015661;28;20036;-75
2023/02/24 10:49:55;;;;;;;7.30;0.88;;;5.60;99.90;;;;;;5015641;28;20549;-74
2023/02/24 10:52:49;;;;;;;7.43;0.90;;;5.70;99.90;;;;;;5015285;28;20496;-75
2023/02/24 10:58:36;;;;;;;6.93;0.60;;;5.70;99.90;;;;;;5011547;28;20561;-76
2023/02/24 11:01:39;;;;;;;10.20;1.13;;;5.80;99.90;;;;;;5015030;28;20064;-74
2023/02/24 11:07:24;;;;;;;2.72;0.75;;;5.90;99.90;;;;;;4963035;28;20059;-75
2023/02/24 11:10:12;;;;;;;4.13;1.10;;;6.10;99.90;;;;;;5016613;28;20030;-75
2023/02/24 11:18:25;;;;;;;2.38;0.80;;;6.30;99.90;;;;;;5016583;28;20040;-76
2023/02/24 11:21:09;;;;;;;9.82;1.60;;;6.30;99.90;;;;;;5014894;28;20061;-75
2023/02/24 11:23:43;;;;;;;2.28;0.70;;;6.30;99.90;;;;;;5015055;28;20037;-75
2023/02/24 11:26:19;;;;;;;5.70;1.00;;;6.30;99.90;;;;;;5016448;28;20033;-75
2023/02/24 11:29:23;;;;;;;4.25;0.85;;;6.30;99.90;;;;;;5016415;28;20037;-75
2023/02/24 11:32:07;;;;;;;4.05;0.80;;;6.40;99.90;;;;;;5012342;28;20091;-75
2023/02/24 11:34:36;;;;;;;3.95;1.25;;;6.40;99.90;;;;;;5014827;28;20099;-75
2023/02/24 11:37:37;;;;;;;4.32;0.95;;;6.50;99.90;;;;;;5016007;28;20393;-75
2023/02/24 11:40:22;;;;;;;4.38;1.25;;;6.60;99.90;;;;;;4993191;28;20037;-74
2023/02/24 11:43:12;;;;;;;3.20;1.30;;;6.70;99.90;;;;;;5015212;28;20515;-74
2023/02/24 11:45:45;;;;;;;2.80;1.20;;;6.80;99.90;;;;;;5013910;28;20448;-74
2023/02/24 11:48:31;;;;;;;5.82;1.25;;;6.90;99.90;;;;;;5013921;28;20121;-74
2023/02/24 11:51:03;;;;;;;4.93;1.98;;;7.00;99.90;;;;;;5015101;28;20481;-75
2023/02/24 11:53:46;;;;;;;8.02;2.10;;;7.00;99.90;;;;;;5015029;28;20374;-74
2023/02/24 11:56:16;;;;;;;6.47;1.45;;;7.10;99.90;;;;;;5013858;28;20072;-74
2023/02/24 11:59:03;;;;;;;9.73;2.25;;;7.10;99.90;;;;;;5014876;28;20057;-75
2023/02/24 12:01:30;;;;;;;5.50;2.20;;;7.20;99.90;;;;;;5013884;28;20403;-74
2023/02/24 12:04:05;;;;;;;11.27;2.33;;;7.30;99.90;;;;;;5013742;28;20026;-74
2023/02/24 12:06:39;;;;;;;9.45;2.10;;;7.30;99.90;;;;;;5014930;28;20026;-75
2023/02/24 12:09:14;;;;;;;13.30;1.67;;;7.40;99.90;;;;;;5013812;28;20392;-74
2023/02/24 12:11:58;;;;;;;10.32;2.38;;;7.20;99.90;;;;;;5014878;28;20080;-75
2023/02/24 12:14:38;;;;;;;6.80;1.73;;;7.50;99.90;;;;;;5015167;28;20036;-74
2023/02/24 12:17:24;;;;;;;10.27;2.05;;;7.50;99.90;;;;;;5013087;28;20108;-75
2023/02/24 12:20:13;;;;;;;16.40;3.50;;;7.60;99.90;;;;;;5013445;28;20060;-74
2023/02/24 12:22:56;;;;;;;15.88;3.45;;;7.60;99.90;;;;;;5014618;28;20018;-75
2023/02/24 12:25:28;;;;;;;10.23;1.67;;;7.70;99.90;;;;;;5014702;28;20021;-74
2023/02/24 12:28:00;;;;;;;9.65;2.33;;;7.70;99.90;;;;;;5014527;28;20026;-75
2023/02/24 12:30:49;;;;;;;21.10;2.47;;;7.70;99.90;;;;;;5014517;28;20413;-75
2023/02/24 12:33:41;;;;;;;23.48;1.33;;;7.80;99.90;;;;;;5014376;28;20096;-75
2023/02/24 12:36:29;;;;;;;10.73;1.75;;;7.70;99.90;;;;;;5015129;28;20488;-75
2023/02/24 12:39:17;;;;;;;17.38;1.50;;;7.80;99.90;;;;;;5014500;28;20018;-73
2023/02/24 12:41:57;;;;;;;16.27;1.97;;;7.80;99.90;;;;;;5014272;28;20026;-73
2023/02/24 12:44:32;;;;;;;15.30;1.00;;;7.90;99.90;;;;;;5013198;28;20022;-73
2023/02/24 12:47:11;;;;;;;14.80;1.45;;;8.00;99.90;;;;;;5012919;28;20066;-73
2023/02/24 12:49:59;;;;;;;22.83;2.17;;;8.00;99.90;;;;;;5014398;28;20029;-73
2023/02/24 12:52:41;;;;;;;13.73;2.05;;;8.10;99.90;;;;;;5012750;28;20034;-73
2023/02/24 12:55:14;;;;;;;14.93;1.85;;;8.10;99.90;;;;;;5012891;28;20030;-73
2023/02/24 12:57:57;;;;;;;20.80;0.95;;;8.30;99.90;;;;;;5012991;28;20025;-73
2023/02/24 13:00:53;;;;;;;19.63;1.50;;;8.50;99.90;;;;;;5014331;28;20014;-73
2023/02/24 13:03:30;;;;;;;13.25;0.93;;;8.70;99.90;;;;;;5014539;28;20018;-73
2023/02/24 13:06:29;;;;;;;18.25;1.77;;;8.70;99.90;;;;;;5013945;28;20032;-73
2023/02/24 13:08:58;;;;;;;23.80;1.73;;;8.70;99.90;;;;;;5012709;28;20018;-73
2023/02/24 13:11:46;;;;;;;18.48;1.90;;;8.80;99.90;;;;;;5014113;28;20030;-73
2023/02/24 13:14:21;;;;;;;8.67;0.80;;;8.80;99.90;;;;;;5013916;28;20555;-73
2023/02/24 13:16:46;;;;;;;13.40;0.85;;;8.90;99.90;;;;;;5013782;28;20817;-73
2023/02/24 13:19:21;;;;;;;21.35;2.45;;;8.90;99.90;;;;;;5012627;28;20026;-73
2023/02/24 13:22:10;;;;;;;17.55;1.83;;;9.00;99.90;;;;;;5013748;28;20022;-73
2023/02/24 13:24:39;;;;;;;16.88;1.77;;;8.90;99.90;;;;;;5013821;28;20046;-73
2023/02/24 13:27:06;;;;;;;;;;;8.90;99.90;;;;;;5013681;28;20080;-73
2023/02/24 13:29:46;;;;;;;12.63;1.10;;;8.90;99.90;;;;;;5013740;28;19905;-73
2023/02/24 13:32:31;;;;;;;11.93;0.85;;;9.00;99.90;;;;;;5013819;28;20030;-74
2023/02/24 13:35:03;;;;;;;11.38;1.02;;;8.90;99.90;;;;;;5012419;28;20029;-74
2023/02/24 13:37:38;;;;;;;10.10;0.55;;;8.80;99.90;;;;;;5012579;28;20497;-73
2023/02/24 13:40:21;;;;;;;8.35;0.32;;;8.50;99.90;;;;;;5014166;28;20022;-73
2023/02/24 13:42:55;;;;;;;11.75;0.80;;;8.30;99.90;;;;;;5013533;28;20029;-73
2023/02/24 13:45:24;;;;;;;13.88;0.73;;;8.20;99.90;;;;;;5013995;28;20041;-73
2023/02/24 13:47:52;;;;;;;13.80;0.82;;;8.50;99.90;;;;;;5012187;28;20512;-74
2023/02/24 13:50:28;;;;;;;11.18;0.55;;;8.90;99.90;;;;;;5013551;28;20026;-74
2023/02/24 13:53:22;;;;;;;22.27;1.77;;;9.20;99.90;;;;;;5011243;28;20029;-74
2023/02/24 13:56:13;;;;;;;13.45;1.33;;;9.50;99.90;;;;;;5012106;28;20537;-74